sensor_id;sensor_type;location;lat;lon;timestamp;pressure;altitude;pressure_sealevel;temperature;humidity
27358;BME280;14831;50.474;7.616;2023-04-25T00:01:24;97470;;;5.7;89.5
27358;BME280;14831;50.474;7.616;2023-04-25T00:06:24;97470;;;5.6;88.7
27358;BME280;14831;50.474;7.616;2023-04-25T00:11:24;97480;;;5.5;88.6
27358;BME280;14831;50.474;7.616;2023-04-25T00:16:24;97470;;;5.4;88.4
27358;BME280;14831;50.474;7.616;2023-04-25T00:21:24;97470;;;5.3;88.5
27358;BME280;14831;50.474;7.616;2023-04-25T00:26:24;97470;;;5.3;88.2
27358;BME280;14831;50.474;7.616;2023-04-25T00:31:24;97460;;;5.3;87.0
27358;BME280;14831;50.474;7.616;2023-04-25T00:36:24;97470;;;5.2;86.7
27358;BME280;14831;50.474;7.616;2023-04-25T00:41:25;97470;;;5.2;87.5
27358;BME280;14831;50.474;7.616;2023-04-25T00:46:24;97470;;;5.1;87.7
27358;BME280;14831;50.474;7.616;2023-04-25T00:51:24;97450;;;5.0;88.0
27358;BME280;14831;50.474;7.616;2023-04-25T00:56:24;97460;;;4.9;87.9
27358;BME280;14831;50.474;7.616;2023-04-25T01:01:24;97450;;;4.8;89.2
27358;BME280;14831;50.474;7.616;2023-04-25T01:06:24;97450;;;4.6;89.3
27358;BME280;14831;50.474;7.616;2023-04-25T01:11:24;97460;;;4.5;89.4
27358;BME280;14831;50.474;7.616;2023-04-25T01:16:24;97450;;;4.6;89.0
27358;BME280;14831;50.474;7.616;2023-04-25T01:21:24;97460;;;4.5;88.6
27358;BME280;14831;50.474;7.616;2023-04-25T01:26:24;97450;;;4.5;87.5
27358;BME280;14831;50.474;7.616;2023-04-25T01:31:24;97460;;;4.6;86.6
27358;BME280;14831;50.474;7.616;2023-04-25T01:36:24;97450;;;4.6;85.7
27358;BME280;14831;50.474;7.616;2023-04-25T01:41:24;97450;;;4.6;85.3
27358;BME280;14831;50.474;7.616;2023-04-25T01:46:24;97450;;;4.5;85.3
27358;BME280;14831;50.474;7.616;2023-04-25T01:51:24;97460;;;4.4;85.1
27358;BME280;14831;50.474;7.616;2023-04-25T01:56:24;97450;;;4.3;85.7
27358;BME280;14831;50.474;7.616;2023-04-25T02:01:24;97460;;;4.3;86.3
27358;BME280;14831;50.474;7.616;2023-04-25T02:06:24;97460;;;4.2;86.0
27358;BME280;14831;50.474;7.616;2023-04-25T02:11:24;97460;;;4.2;87.0
27358;BME280;14831;50.474;7.616;2023-04-25T02:16:24;97470;;;4.2;86.1
27358;BME280;14831;50.474;7.616;2023-04-25T02:21:24;97470;;;4.1;86.3
27358;BME280;14831;50.474;7.616;2023-04-25T02:26:24;97470;;;4.1;86.8
27358;BME280;14831;50.474;7.616;2023-04-25T02:31:24;97470;;;4.0;86.7
27358;BME280;14831;50.474;7.616;2023-04-25T02:36:24;97470;;;4.0;86.6
27358;BME280;14831;50.474;7.616;2023-04-25T02:41:24;97470;;;4.0;86.9
27358;BME280;14831;50.474;7.616;2023-04-25T02:46:24;97460;;;3.9;87.1
27358;BME280;14831;50.474;7.616;2023-04-25T02:51:24;97470;;;3.9;87.5
27358;BME280;14831;50.474;7.616;2023-04-25T02:56:24;97470;;;3.9;87.5
27358;BME280;14831;50.474;7.616;2023-04-25T03:01:24;97460;;;3.9;87.5
27358;BME280;14831;50.474;7.616;2023-04-25T03:06:24;97460;;;4.0;87.2
27358;BME280;14831;50.474;7.616;2023-04-25T03:11:25;97470;;;4.0;87.7
27358;BME280;14831;50.474;7.616;2023-04-25T03:16:24;97470;;;4.1;87.4
27358;BME280;14831;50.474;7.616;2023-04-25T03:21:24;97460;;;4.2;87.7
27358;BME280;14831;50.474;7.616;2023-04-25T03:26:24;97470;;;4.1;88.0
27358;BME280;14831;50.474;7.616;2023-04-25T03:31:24;97460;;;4.0;88.4
27358;BME280;14831;50.474;7.616;2023-04-25T03:36:24;97460;;;3.9;89.0
27358;BME280;14831;50.474;7.616;2023-04-25T03:41:24;97470;;;3.8;89.3
27358;BME280;14831;50.474;7.616;2023-04-25T03:46:24;97470;;;3.7;89.8
27358;BME280;14831;50.474;7.616;2023-04-25T03:51:24;97480;;;3.7;90.4
27358;BME280;14831;50.474;7.616;2023-04-25T03:56:24;97480;;;3.6;90.5
27358;BME280;14831;50.474;7.616;2023-04-25T04:01:24;97480;;;3.6;90.6
27358;BME280;14831;50.474;7.616;2023-04-25T04:06:24;97490;;;3.7;90.6
27358;BME280;14831;50.474;7.616;2023-04-25T04:11:24;97490;;;3.7;90.3
27358;BME280;14831;50.474;7.616;2023-04-25T04:16:24;97480;;;3.8;90.1
27358;BME280;14831;50.474;7.616;2023-04-25T04:21:24;97480;;;3.8;89.6
27358;BME280;14831;50.474;7.616;2023-04-25T04:26:24;97480;;;3.9;88.7
27358;BME280;14831;50.474;7.616;2023-04-25T04:31:24;97480;;;3.9;88.6
27358;BME280;14831;50.474;7.616;2023-04-25T04:36:24;97490;;;3.9;88.9
27358;BME280;14831;50.474;7.616;2023-04-25T04:41:24;97490;;;3.9;89.3
27358;BME280;14831;50.474;7.616;2023-04-25T04:46:24;97490;;;3.9;89.6
27358;BME280;14831;50.474;7.616;2023-04-25T04:51:24;97500;;;3.9;89.4
27358;BME280;14831;50.474;7.616;2023-04-25T04:56:24;97500;;;3.9;89.3
27358;BME280;14831;50.474;7.616;2023-04-25T05:01:24;97510;;;4.0;88.4
27358;BME280;14831;50.474;7.616;2023-04-25T05:06:24;97520;;;4.0;87.8
27358;BME280;14831;50.474;7.616;2023-04-25T05:11:24;97510;;;4.0;87.8
27358;BME280;14831;50.474;7.616;2023-04-25T05:16:24;97530;;;4.1;88.5
27358;BME280;14831;50.474;7.616;2023-04-25T05:21:24;97530;;;4.0;88.2
27358;BME280;14831;50.474;7.616;2023-04-25T05:26:24;97540;;;4.0;88.1
27358;BME280;14831;50.474;7.616;2023-04-25T05:31:24;97540;;;4.0;89.0
27358;BME280;14831;50.474;7.616;2023-04-25T05:36:24;97540;;;4.0;88.6
27358;BME280;14831;50.474;7.616;2023-04-25T05:41:24;97550;;;4.1;88.5
27358;BME280;14831;50.474;7.616;2023-04-25T05:46:24;97540;;;4.2;88.1
27358;BME280;14831;50.474;7.616;2023-04-25T05:51:24;97550;;;4.1;88.5
27358;BME280;14831;50.474;7.616;2023-04-25T05:56:24;97550;;;4.1;88.7
27358;BME280;14831;50.474;7.616;2023-04-25T06:01:24;97550;;;4.1;88.9
27358;BME280;14831;50.474;7.616;2023-04-25T06:06:24;97560;;;4.2;88.7
27358;BME280;14831;50.474;7.616;2023-04-25T06:11:24;97570;;;4.3;88.3
27358;BME280;14831;50.474;7.616;2023-04-25T06:16:24;97570;;;4.4;88.4
27358;BME280;14831;50.474;7.616;2023-04-25T06:21:24;97570;;;4.5;88.4
27358;BME280;14831;50.474;7.616;2023-04-25T06:26:24;97580;;;4.5;87.2
27358;BME280;14831;50.474;7.616;2023-04-25T06:31:24;97590;;;4.6;87.5
27358;BME280;14831;50.474;7.616;2023-04-25T06:36:24;97590;;;4.7;87.6
27358;BME280;14831;50.474;7.616;2023-04-25T06:41:24;97600;;;4.8;87.6
27358;BME280;14831;50.474;7.616;2023-04-25T06:46:24;97600;;;4.9;87.7
27358;BME280;14831;50.474;7.616;2023-04-25T06:51:24;97600;;;4.9;86.7
27358;BME280;14831;50.474;7.616;2023-04-25T06:56:24;97600;;;4.9;86.5
27358;BME280;14831;50.474;7.616;2023-04-25T07:01:24;97610;;;4.9;86.0
27358;BME280;14831;50.474;7.616;2023-04-25T07:06:24;97610;;;5.0;85.7
27358;BME280;14831;50.474;7.616;2023-04-25T07:11:24;97620;;;5.0;85.0
27358;BME280;14831;50.474;7.616;2023-04-25T07:16:24;97610;;;5.1;83.3
27358;BME280;14831;50.474;7.616;2023-04-25T07:21:24;97620;;;5.3;83.8
27358;BME280;14831;50.474;7.616;2023-04-25T07:26:24;97630;;;5.5;81.2
27358;BME280;14831;50.474;7.616;2023-04-25T07:31:24;97630;;;5.5;79.3
27358;BME280;14831;50.474;7.616;2023-04-25T07:36:24;97630;;;5.7;79.0
27358;BME280;14831;50.474;7.616;2023-04-25T07:41:24;97640;;;5.5;77.8
27358;BME280;14831;50.474;7.616;2023-04-25T07:46:24;97640;;;5.8;78.3
27358;BME280;14831;50.474;7.616;2023-04-25T07:51:24;97650;;;6.3;76.5
27358;BME280;14831;50.474;7.616;2023-04-25T07:56:24;97650;;;6.8;74.4
27358;BME280;14831;50.474;7.616;2023-04-25T08:01:24;97660;;;7.0;75.5
27358;BME280;14831;50.474;7.616;2023-04-25T08:06:24;97670;;;6.5;74.1
27358;BME280;14831;50.474;7.616;2023-04-25T08:11:24;97680;;;6.4;72.0
27358;BME280;14831;50.474;7.616;2023-04-25T08:16:24;97690;;;6.2;72.0
27358;BME280;14831;50.474;7.616;2023-04-25T08:21:24;97690;;;6.4;71.3
27358;BME280;14831;50.474;7.616;2023-04-25T08:26:24;97690;;;6.8;70.4
27358;BME280;14831;50.474;7.616;2023-04-25T08:31:24;97700;;;7.0;68.8
27358;BME280;14831;50.474;7.616;2023-04-25T08:36:24;97700;;;7.7;68.0
27358;BME280;14831;50.474;7.616;2023-04-25T08:41:24;97710;;;7.3;67.2
27358;BME280;14831;50.474;7.616;2023-04-25T08:46:24;97720;;;7.3;64.6
27358;BME280;14831;50.474;7.616;2023-04-25T08:51:24;97730;;;7.8;64.8
27358;BME280;14831;50.474;7.616;2023-04-25T08:56:24;97750;;;7.6;60.5
27358;BME280;14831;50.474;7.616;2023-04-25T09:01:24;97760;;;7.3;61.0
27358;BME280;14831;50.474;7.616;2023-04-25T09:06:24;97770;;;7.0;63.0
27358;BME280;14831;50.474;7.616;2023-04-25T09:11:24;97800;;;6.8;65.9
27358;BME280;14831;50.474;7.616;2023-04-25T09:16:24;97800;;;6.8;66.6
27358;BME280;14831;50.474;7.616;2023-04-25T09:21:24;97800;;;6.7;65.3
27358;BME280;14831;50.474;7.616;2023-04-25T09:26:24;97820;;;6.7;68.2
27358;BME280;14831;50.474;7.616;2023-04-25T09:31:24;97820;;;6.6;67.3
27358;BME280;14831;50.474;7.616;2023-04-25T09:36:25;97830;;;6.5;66.7
27358;BME280;14831;50.474;7.616;2023-04-25T09:41:24;97830;;;6.5;65.3
27358;BME280;14831;50.474;7.616;2023-04-25T09:46:24;97840;;;6.4;66.7
27358;BME280;14831;50.474;7.616;2023-04-25T09:51:25;97840;;;6.5;66.6
27358;BME280;14831;50.474;7.616;2023-04-25T09:56:24;97840;;;6.3;65.4
27358;BME280;14831;50.474;7.616;2023-04-25T10:01:24;97860;;;6.6;65.6
27358;BME280;14831;50.474;7.616;2023-04-25T10:06:24;97850;;;6.6;65.6
27358;BME280;14831;50.474;7.616;2023-04-25T10:11:24;97850;;;6.8;64.1
27358;BME280;14831;50.474;7.616;2023-04-25T10:16:24;97860;;;6.8;64.0
27358;BME280;14831;50.474;7.616;2023-04-25T10:21:24;97860;;;7.0;59.4
27358;BME280;14831;50.474;7.616;2023-04-25T10:26:24;97850;;;7.1;56.7
27358;BME280;14831;50.474;7.616;2023-04-25T10:31:24;97870;;;6.9;58.5
27358;BME280;14831;50.474;7.616;2023-04-25T10:36:24;97870;;;7.1;60.9
27358;BME280;14831;50.474;7.616;2023-04-25T10:41:24;97870;;;7.0;60.9
27358;BME280;14831;50.474;7.616;2023-04-25T10:46:25;97880;;;7.0;62.9
27358;BME280;14831;50.474;7.616;2023-04-25T10:51:25;97890;;;6.7;63.0
27358;BME280;14831;50.474;7.616;2023-04-25T10:56:25;97900;;;6.5;63.6
27358;BME280;14831;50.474;7.616;2023-04-25T11:01:24;97900;;;6.6;64.7
27358;BME280;14831;50.474;7.616;2023-04-25T11:06:27;97900;;;6.5;62.6
27358;BME280;14831;50.474;7.616;2023-04-25T11:11:24;97900;;;6.8;64.1
27358;BME280;14831;50.474;7.616;2023-04-25T11:16:24;97910;;;7.2;63.3
27358;BME280;14831;50.474;7.616;2023-04-25T11:21:24;97910;;;7.1;60.3
27358;BME280;14831;50.474;7.616;2023-04-25T11:26:24;97910;;;6.9;59.4
27358;BME280;14831;50.474;7.616;2023-04-25T11:31:24;97910;;;7.0;60.6
27358;BME280;14831;50.474;7.616;2023-04-25T11:36:24;97900;;;7.1;60.2
27358;BME280;14831;50.474;7.616;2023-04-25T11:41:24;97910;;;7.2;59.7
27358;BME280;14831;50.474;7.616;2023-04-25T11:46:24;97900;;;7.5;61.6
27358;BME280;14831;50.474;7.616;2023-04-25T11:51:24;97900;;;7.7;59.4
27358;BME280;14831;50.474;7.616;2023-04-25T11:56:24;97900;;;7.8;58.9
27358;BME280;14831;50.474;7.616;2023-04-25T12:01:25;97910;;;8.0;59.1
27358;BME280;14831;50.474;7.616;2023-04-25T12:06:26;97920;;;7.9;56.3
27358;BME280;14831;50.474;7.616;2023-04-25T12:11:24;97930;;;7.5;55.3
27358;BME280;14831;50.474;7.616;2023-04-25T12:16:24;97930;;;7.4;57.3
27358;BME280;14831;50.474;7.616;2023-04-25T12:21:27;97930;;;7.5;57.3
27358;BME280;14831;50.474;7.616;2023-04-25T12:26:24;97940;;;7.5;57.4
27358;BME280;14831;50.474;7.616;2023-04-25T12:31:24;97930;;;7.5;58.0
27358;BME280;14831;50.474;7.616;2023-04-25T12:36:24;97930;;;8.3;60.1
27358;BME280;14831;50.474;7.616;2023-04-25T12:41:24;97930;;;8.0;51.8
27358;BME280;14831;50.474;7.616;2023-04-25T12:46:24;97940;;;8.0;53.0
27358;BME280;14831;50.474;7.616;2023-04-25T12:51:24;97950;;;8.0;53.2
27358;BME280;14831;50.474;7.616;2023-04-25T12:56:24;97930;;;8.1;52.9
27358;BME280;14831;50.474;7.616;2023-04-25T13:01:24;97950;;;8.2;56.0
27358;BME280;14831;50.474;7.616;2023-04-25T13:06:24;97960;;;7.6;55.4
27358;BME280;14831;50.474;7.616;2023-04-25T13:11:24;97960;;;7.6;57.1
27358;BME280;14831;50.474;7.616;2023-04-25T13:16:24;97970;;;7.5;57.9
27358;BME280;14831;50.474;7.616;2023-04-25T13:21:24;97980;;;7.6;59.6
27358;BME280;14831;50.474;7.616;2023-04-25T13:26:24;97970;;;7.4;58.5
27358;BME280;14831;50.474;7.616;2023-04-25T13:31:24;97980;;;7.5;58.0
27358;BME280;14831;50.474;7.616;2023-04-25T13:36:24;97980;;;7.7;54.4
27358;BME280;14831;50.474;7.616;2023-04-25T13:41:24;97980;;;7.7;52.0
27358;BME280;14831;50.474;7.616;2023-04-25T13:46:24;97970;;;7.8;51.8
27358;BME280;14831;50.474;7.616;2023-04-25T13:51:24;97960;;;8.1;54.5
27358;BME280;14831;50.474;7.616;2023-04-25T13:56:24;97970;;;8.4;53.2
27358;BME280;14831;50.474;7.616;2023-04-25T14:01:24;97980;;;8.1;51.0
27358;BME280;14831;50.474;7.616;2023-04-25T14:06:24;97970;;;8.4;52.8
27358;BME280;14831;50.474;7.616;2023-04-25T14:11:24;97970;;;8.7;52.6
27358;BME280;14831;50.474;7.616;2023-04-25T14:16:24;97970;;;8.6;49.9
27358;BME280;14831;50.474;7.616;2023-04-25T14:21:24;97970;;;8.5;48.9
27358;BME280;14831;50.474;7.616;2023-04-25T14:26:24;97960;;;8.6;50.5
27358;BME280;14831;50.474;7.616;2023-04-25T14:31:24;97970;;;8.5;50.7
27358;BME280;14831;50.474;7.616;2023-04-25T14:36:24;97970;;;8.4;49.7
27358;BME280;14831;50.474;7.616;2023-04-25T14:41:24;97970;;;8.5;48.6
27358;BME280;14831;50.474;7.616;2023-04-25T14:46:24;97980;;;8.5;50.1
27358;BME280;14831;50.474;7.616;2023-04-25T14:51:24;97980;;;8.8;50.5
27358;BME280;14831;50.474;7.616;2023-04-25T14:56:24;97990;;;8.5;49.6
27358;BME280;14831;50.474;7.616;2023-04-25T15:01:24;98000;;;8.3;51.1
27358;BME280;14831;50.474;7.616;2023-04-25T15:06:24;98000;;;8.1;52.1
27358;BME280;14831;50.474;7.616;2023-04-25T15:11:24;98000;;;8.0;53.0
27358;BME280;14831;50.474;7.616;2023-04-25T15:16:24;98000;;;7.9;52.0
27358;BME280;14831;50.474;7.616;2023-04-25T15:21:24;98010;;;7.8;52.3
27358;BME280;14831;50.474;7.616;2023-04-25T15:26:24;98030;;;7.8;50.1
27358;BME280;14831;50.474;7.616;2023-04-25T15:31:24;98000;;;7.9;53.6
27358;BME280;14831;50.474;7.616;2023-04-25T15:36:24;98010;;;7.9;49.7
27358;BME280;14831;50.474;7.616;2023-04-25T15:41:24;98000;;;7.9;49.1
27358;BME280;14831;50.474;7.616;2023-04-25T15:46:24;98000;;;7.9;48.7
27358;BME280;14831;50.474;7.616;2023-04-25T15:51:24;97990;;;8.0;48.5
27358;BME280;14831;50.474;7.616;2023-04-25T15:56:24;98010;;;8.0;50.1
27358;BME280;14831;50.474;7.616;2023-04-25T16:01:24;98000;;;8.1;47.8
27358;BME280;14831;50.474;7.616;2023-04-25T16:06:25;98010;;;8.2;48.6
27358;BME280;14831;50.474;7.616;2023-04-25T16:11:24;98010;;;8.5;50.2
27358;BME280;14831;50.474;7.616;2023-04-25T16:16:24;98020;;;8.4;47.8
27358;BME280;14831;50.474;7.616;2023-04-25T16:21:24;98020;;;8.6;49.9
27358;BME280;14831;50.474;7.616;2023-04-25T16:26:24;98020;;;8.4;49.3
27358;BME280;14831;50.474;7.616;2023-04-25T16:31:24;98010;;;8.2;50.1
27358;BME280;14831;50.474;7.616;2023-04-25T16:36:24;98020;;;8.2;50.3
27358;BME280;14831;50.474;7.616;2023-04-25T16:41:24;98020;;;8.0;49.9
27358;BME280;14831;50.474;7.616;2023-04-25T16:46:24;98030;;;8.1;51.6
27358;BME280;14831;50.474;7.616;2023-04-25T16:51:24;98030;;;8.5;50.7
27358;BME280;14831;50.474;7.616;2023-04-25T16:56:24;98020;;;8.6;50.4
27358;BME280;14831;50.474;7.616;2023-04-25T17:01:24;98020;;;8.7;50.1
27358;BME280;14831;50.474;7.616;2023-04-25T17:06:24;98030;;;8.6;50.0
27358;BME280;14831;50.474;7.616;2023-04-25T17:11:24;98030;;;8.4;51.7
27358;BME280;14831;50.474;7.616;2023-04-25T17:16:32;98040;;;8.4;49.8
27358;BME280;14831;50.474;7.616;2023-04-25T17:21:24;98040;;;8.3;50.0
27358;BME280;14831;50.474;7.616;2023-04-25T17:26:24;98050;;;8.2;50.0
27358;BME280;14831;50.474;7.616;2023-04-25T17:31:24;98060;;;8.0;50.7
27358;BME280;14831;50.474;7.616;2023-04-25T17:36:24;98070;;;7.6;47.7
27358;BME280;14831;50.474;7.616;2023-04-25T17:41:24;98070;;;7.5;48.1
27358;BME280;14831;50.474;7.616;2023-04-25T17:46:24;98080;;;7.4;49.4
27358;BME280;14831;50.474;7.616;2023-04-25T17:51:24;98070;;;7.3;48.4
27358;BME280;14831;50.474;7.616;2023-04-25T17:56:24;98070;;;7.2;50.2
27358;BME280;14831;50.474;7.616;2023-04-25T18:01:24;98070;;;7.1;51.7
27358;BME280;14831;50.474;7.616;2023-04-25T18:06:24;98060;;;7.0;52.8
27358;BME280;14831;50.474;7.616;2023-04-25T18:11:24;98070;;;7.0;53.4
27358;BME280;14831;50.474;7.616;2023-04-25T18:16:24;98080;;;6.9;55.7
27358;BME280;14831;50.474;7.616;2023-04-25T18:21:24;98080;;;6.9;55.5
27358;BME280;14831;50.474;7.616;2023-04-25T18:26:24;98080;;;6.8;56.7
27358;BME280;14831;50.474;7.616;2023-04-25T18:31:24;98080;;;6.8;56.9
27358;BME280;14831;50.474;7.616;2023-04-25T18:36:24;98090;;;6.8;56.8
27358;BME280;14831;50.474;7.616;2023-04-25T18:41:24;98110;;;6.7;58.3
27358;BME280;14831;50.474;7.616;2023-04-25T18:46:24;98100;;;6.6;57.7
27358;BME280;14831;50.474;7.616;2023-04-25T18:51:24;98110;;;6.6;57.6
27358;BME280;14831;50.474;7.616;2023-04-25T18:56:24;98110;;;6.6;59.0
27358;BME280;14831;50.474;7.616;2023-04-25T19:01:24;98120;;;6.5;59.8
27358;BME280;14831;50.474;7.616;2023-04-25T19:06:25;98120;;;6.4;59.0
27358;BME280;14831;50.474;7.616;2023-04-25T19:11:24;98120;;;6.4;59.7
27358;BME280;14831;50.474;7.616;2023-04-25T19:16:24;98120;;;6.4;60.3
27358;BME280;14831;50.474;7.616;2023-04-25T19:21:24;98130;;;6.3;61.0
27358;BME280;14831;50.474;7.616;2023-04-25T19:26:24;98140;;;6.4;60.3
27358;BME280;14831;50.474;7.616;2023-04-25T19:31:24;98130;;;6.3;60.2
27358;BME280;14831;50.474;7.616;2023-04-25T19:36:24;98140;;;6.3;61.7
27358;BME280;14831;50.474;7.616;2023-04-25T19:41:24;98140;;;6.2;63.0
27358;BME280;14831;50.474;7.616;2023-04-25T19:46:24;98140;;;6.1;63.7
27358;BME280;14831;50.474;7.616;2023-04-25T19:51:24;98130;;;6.0;64.2
27358;BME280;14831;50.474;7.616;2023-04-25T19:56:24;98120;;;5.9;64.4
27358;BME280;14831;50.474;7.616;2023-04-25T20:01:24;98130;;;5.9;64.9
27358;BME280;14831;50.474;7.616;2023-04-25T20:06:24;98140;;;5.9;65.0
27358;BME280;14831;50.474;7.616;2023-04-25T20:11:24;98130;;;5.9;65.4
27358;BME280;14831;50.474;7.616;2023-04-25T20:16:24;98140;;;5.9;65.0
27358;BME280;14831;50.474;7.616;2023-04-25T20:21:24;98140;;;5.9;65.0
27358;BME280;14831;50.474;7.616;2023-04-25T20:26:24;98150;;;5.8;65.5
27358;BME280;14831;50.474;7.616;2023-04-25T20:31:24;98150;;;5.7;66.1
27358;BME280;14831;50.474;7.616;2023-04-25T20:36:24;98160;;;5.6;66.9
27358;BME280;14831;50.474;7.616;2023-04-25T20:41:24;98150;;;5.6;66.4
27358;BME280;14831;50.474;7.616;2023-04-25T20:46:25;98170;;;5.6;66.4
27358;BME280;14831;50.474;7.616;2023-04-25T20:51:24;98170;;;5.5;67.5
27358;BME280;14831;50.474;7.616;2023-04-25T20:56:24;98170;;;5.4;67.7
27358;BME280;14831;50.474;7.616;2023-04-25T21:01:24;98170;;;5.2;67.9
27358;BME280;14831;50.474;7.616;2023-04-25T21:06:24;98160;;;5.0;69.0
27358;BME280;14831;50.474;7.616;2023-04-25T21:11:24;98160;;;4.7;70.0
27358;BME280;14831;50.474;7.616;2023-04-25T21:16:24;98160;;;4.4;72.4
27358;BME280;14831;50.474;7.616;2023-04-25T21:21:24;98160;;;4.2;72.5
27358;BME280;14831;50.474;7.616;2023-04-25T21:26:24;98170;;;3.9;73.2
27358;BME280;14831;50.474;7.616;2023-04-25T21:31:24;98160;;;3.7;74.1
27358;BME280;14831;50.474;7.616;2023-04-25T21:36:25;98170;;;3.5;75.6
27358;BME280;14831;50.474;7.616;2023-04-25T21:41:24;98160;;;3.7;74.9
27358;BME280;14831;50.474;7.616;2023-04-25T21:46:24;98160;;;3.9;73.7
27358;BME280;14831;50.474;7.616;2023-04-25T21:51:24;98160;;;4.1;71.9
27358;BME280;14831;50.474;7.616;2023-04-25T21:56:24;98170;;;4.0;72.3
27358;BME280;14831;50.474;7.616;2023-04-25T22:01:24;98180;;;3.8;73.5
27358;BME280;14831;50.474;7.616;2023-04-25T22:06:24;98180;;;3.7;74.0
27358;BME280;14831;50.474;7.616;2023-04-25T22:11:24;98180;;;3.7;73.8
27358;BME280;14831;50.474;7.616;2023-04-25T22:16:24;98180;;;3.9;72.0
27358;BME280;14831;50.474;7.616;2023-04-25T22:21:24;98190;;;4.0;71.0
27358;BME280;14831;50.474;7.616;2023-04-25T22:26:24;98200;;;4.0;70.8
27358;BME280;14831;50.474;7.616;2023-04-25T22:31:24;98200;;;4.0;71.0
27358;BME280;14831;50.474;7.616;2023-04-25T22:36:24;98200;;;4.0;70.6
27358;BME280;14831;50.474;7.616;2023-04-25T22:41:24;98210;;;4.0;70.3
27358;BME280;14831;50.474;7.616;2023-04-25T22:46:24;98210;;;4.0;70.1
27358;BME280;14831;50.474;7.616;2023-04-25T22:51:24;98220;;;4.1;70.1
27358;BME280;14831;50.474;7.616;2023-04-25T22:56:24;98220;;;4.2;69.5
27358;BME280;14831;50.474;7.616;2023-04-25T23:01:24;98220;;;4.3;68.8
27358;BME280;14831;50.474;7.616;2023-04-25T23:06:24;98220;;;4.4;68.2
27358;BME280;14831;50.474;7.616;2023-04-25T23:11:24;98220;;;4.4;68.3
27358;BME280;14831;50.474;7.616;2023-04-25T23:16:24;98230;;;4.3;69.0
27358;BME280;14831;50.474;7.616;2023-04-25T23:21:24;98230;;;4.1;69.9
27358;BME280;14831;50.474;7.616;2023-04-25T23:26:24;98220;;;4.0;70.7
27358;BME280;14831;50.474;7.616;2023-04-25T23:31:24;98220;;;3.9;70.7
27358;BME280;14831;50.474;7.616;2023-04-25T23:36:24;98230;;;4.0;70.9
27358;BME280;14831;50.474;7.616;2023-04-25T23:41:24;98230;;;4.0;71.1
27358;BME280;14831;50.474;7.616;2023-04-25T23:46:24;98230;;;3.9;71.2
27358;BME280;14831;50.474;7.616;2023-04-25T23:51:24;98230;;;3.8;71.8
27358;BME280;14831;50.474;7.616;2023-04-25T23:56:24;98230;;;3.7;73.4
